createdAt,value
2019-03-19T00:00:19.942Z,7.37
2019-03-19T00:02:49.402Z,7.72
2019-03-19T00:05:18.938Z,7.53
2019-03-19T00:07:48.393Z,7.25
2019-03-19T00:10:17.867Z,7.45
2019-03-19T00:12:47.262Z,7.75
2019-03-19T00:15:17.123Z,8.58
2019-03-19T00:17:46.592Z,6.30
2019-03-19T00:20:16.016Z,7.37
2019-03-19T00:22:45.523Z,7.23
2019-03-19T00:25:15.070Z,6.58
2019-03-19T00:27:44.525Z,7.17
2019-03-19T00:30:14.293Z,7.67
2019-03-19T00:32:43.749Z,7.42
2019-03-19T00:35:13.313Z,7.03
2019-03-19T00:37:42.873Z,7.97
2019-03-19T00:40:12.970Z,7.25
2019-03-19T00:42:42.409Z,7.80
2019-03-19T00:45:12.580Z,7.90
2019-03-19T00:47:42.163Z,7.17
2019-03-19T00:50:12.017Z,5.12
2019-03-19T00:52:41.441Z,6.72
2019-03-19T00:55:11.231Z,7.13
2019-03-19T00:57:40.670Z,7.47
2019-03-19T01:00:10.669Z,7.03
2019-03-19T01:02:40.079Z,5.30
2019-03-19T01:05:09.667Z,6.15
2019-03-19T01:07:40.101Z,6.85
2019-03-19T01:10:10.753Z,6.83
2019-03-19T01:12:40.174Z,7.47
2019-03-19T01:15:10.566Z,7.47
2019-03-19T01:17:40.087Z,7.23
2019-03-19T01:20:12.830Z,7.25
2019-03-19T01:22:42.281Z,7.28
2019-03-19T01:25:12.959Z,7.12
2019-03-19T01:27:42.371Z,7.40
2019-03-19T01:30:12.368Z,7.17
2019-03-19T01:32:41.793Z,6.75
2019-03-19T01:35:11.415Z,7.10
2019-03-19T01:37:40.909Z,5.90
2019-03-19T01:40:10.434Z,7.00
2019-03-19T01:42:40.123Z,6.97
2019-03-19T01:45:09.754Z,7.57
2019-03-19T01:47:39.350Z,7.05
2019-03-19T01:50:09.064Z,7.17
2019-03-19T01:52:38.536Z,6.75
2019-03-19T01:55:09.175Z,6.55
2019-03-19T01:57:38.623Z,7.12
2019-03-19T02:00:09.298Z,7.00
2019-03-19T02:02:38.794Z,6.87
2019-03-19T02:05:09.091Z,7.10
2019-03-19T02:07:38.521Z,6.43
2019-03-19T02:10:08.710Z,7.45
2019-03-19T02:12:38.566Z,6.53
2019-03-19T02:15:09.046Z,5.90
2019-03-19T02:17:38.494Z,6.90
2019-03-19T02:20:09.636Z,6.03
2019-03-19T02:22:39.126Z,5.87
2019-03-19T02:25:10.250Z,6.92
2019-03-19T02:27:39.809Z,6.20
2019-03-19T02:30:10.428Z,5.90
2019-03-19T02:32:40.134Z,6.50
2019-03-19T02:35:09.724Z,5.25
2019-03-19T02:37:39.184Z,5.33
2019-03-19T02:40:09.077Z,6.73
2019-03-19T02:42:38.496Z,4.42
2019-03-19T02:45:08.416Z,6.55
2019-03-19T02:47:37.842Z,6.92
2019-03-19T02:50:08.104Z,6.58
2019-03-19T02:52:37.547Z,6.53
2019-03-19T02:55:07.329Z,6.62
2019-03-19T02:57:36.810Z,7.03
2019-03-19T03:00:07.284Z,6.53
2019-03-19T03:02:36.724Z,6.80
2019-03-19T03:05:07.895Z,6.17
2019-03-19T03:07:37.328Z,5.42
2019-03-19T03:10:07.322Z,6.40
2019-03-19T03:12:36.752Z,6.85
2019-03-19T03:15:06.635Z,6.58
2019-03-19T03:17:36.055Z,5.12
2019-03-19T03:20:05.891Z,5.37
2019-03-19T03:22:34.706Z,6.45
2019-03-19T03:25:04.685Z,4.50
2019-03-19T03:27:34.135Z,6.20
2019-03-19T03:30:03.619Z,5.65
2019-03-19T03:32:33.084Z,6.53
2019-03-19T03:35:02.552Z,5.92
2019-03-19T03:37:31.976Z,6.75
2019-03-19T03:40:01.417Z,6.22
2019-03-19T03:42:30.863Z,6.58
2019-03-19T03:45:00.469Z,6.33
2019-03-19T03:47:29.948Z,6.78
2019-03-19T03:49:59.375Z,5.95
2019-03-19T03:52:28.824Z,6.35
2019-03-19T03:54:58.281Z,5.67
2019-03-19T03:57:27.705Z,5.87
2019-03-19T03:59:57.165Z,5.37
2019-03-19T04:02:26.683Z,6.75
2019-03-19T04:04:56.157Z,6.92
2019-03-19T04:07:25.635Z,6.78
2019-03-19T04:09:55.088Z,6.25
2019-03-19T04:12:24.517Z,6.03
2019-03-19T04:14:54.447Z,5.85
2019-03-19T04:17:24.410Z,5.50
2019-03-19T04:19:56.549Z,6.05
2019-03-19T04:22:26.411Z,5.47
2019-03-19T04:24:56.064Z,6.10
2019-03-19T04:27:25.475Z,6.67
2019-03-19T04:29:55.903Z,5.53
2019-03-19T04:32:25.364Z,6.17
2019-03-19T04:34:54.797Z,6.62
2019-03-19T04:37:24.212Z,6.12
2019-03-19T04:39:53.855Z,6.25
2019-03-19T04:42:23.325Z,6.35
2019-03-19T04:44:52.747Z,6.30
2019-03-19T04:47:22.169Z,6.70
2019-03-19T04:49:51.592Z,6.45
2019-03-19T04:52:21.031Z,6.00
2019-03-19T04:54:51.764Z,6.20
2019-03-19T04:57:26.607Z,6.08
2019-03-19T04:59:52.409Z,6.17
2019-03-19T05:02:21.843Z,6.08
2019-03-19T05:04:53.385Z,6.78
2019-03-19T05:07:22.796Z,6.10
2019-03-19T05:09:52.245Z,6.37
2019-03-19T05:12:21.708Z,6.08
2019-03-19T05:14:51.644Z,6.80
2019-03-19T05:17:23.060Z,6.70
2019-03-19T05:19:52.811Z,5.53
2019-03-19T05:22:22.225Z,5.40
2019-03-19T05:24:51.656Z,5.45
2019-03-19T05:27:21.114Z,6.28
2019-03-19T05:29:52.194Z,6.92
2019-03-19T05:32:22.845Z,4.95
2019-03-19T05:34:52.334Z,6.58
2019-03-19T05:37:21.743Z,6.40
2019-03-19T05:39:51.202Z,6.10
2019-03-19T05:42:20.622Z,5.50
2019-03-19T05:44:50.050Z,5.03
2019-03-19T05:47:19.934Z,7.00
2019-03-19T05:49:49.430Z,5.30
2019-03-19T05:52:18.845Z,5.20
2019-03-19T05:54:48.280Z,5.55
2019-03-19T05:57:17.741Z,4.85
2019-03-19T05:59:47.174Z,4.43
2019-03-19T06:02:16.630Z,6.00
2019-03-19T06:04:46.081Z,6.10
2019-03-19T06:07:15.550Z,5.87
2019-03-19T06:09:45.026Z,5.95
2019-03-19T06:12:14.473Z,5.58
2019-03-19T06:14:44.131Z,5.70
2019-03-19T06:17:13.732Z,6.12
2019-03-19T06:19:43.232Z,6.05
2019-03-19T06:22:12.708Z,5.22
2019-03-19T06:24:42.258Z,5.90
2019-03-19T06:27:11.696Z,5.58
2019-03-19T06:29:41.343Z,4.70
2019-03-19T06:32:11.109Z,6.33
2019-03-19T06:34:41.020Z,6.28
2019-03-19T06:37:09.892Z,4.08
2019-03-19T06:39:39.331Z,5.65
2019-03-19T06:42:08.037Z,5.08
2019-03-19T06:44:37.478Z,5.78
2019-03-19T06:47:06.884Z,5.37
2019-03-19T06:49:36.330Z,6.00
2019-03-19T06:52:05.753Z,4.72
2019-03-19T06:54:35.170Z,6.40
2019-03-19T06:57:04.662Z,6.80
2019-03-19T06:59:34.122Z,6.78
2019-03-19T07:02:03.565Z,7.78
2019-03-19T07:04:33.027Z,7.90
2019-03-19T07:07:02.481Z,9.25
2019-03-19T07:09:31.999Z,9.60
2019-03-19T07:12:01.841Z,8.38
2019-03-19T07:14:31.691Z,11.97
2019-03-19T07:17:01.096Z,9.50
2019-03-19T07:19:30.541Z,9.50
2019-03-19T07:21:59.945Z,8.60
2019-03-19T07:24:29.388Z,10.13
2019-03-19T07:26:58.823Z,9.48
2019-03-19T07:29:28.293Z,9.25
2019-03-19T07:31:57.721Z,9.85
2019-03-19T07:34:27.157Z,11.50
2019-03-19T07:36:56.751Z,10.25
2019-03-19T07:39:26.224Z,9.80
2019-03-19T07:41:55.659Z,9.20
2019-03-19T07:44:25.102Z,8.13
2019-03-19T07:46:54.547Z,8.00
2019-03-19T07:49:24.009Z,7.72
2019-03-19T07:51:53.678Z,8.30
2019-03-19T07:54:23.157Z,10.05
2019-03-19T07:56:52.588Z,7.95
2019-03-19T07:59:22.222Z,9.23
2019-03-19T08:01:51.683Z,6.58
2019-03-19T08:04:21.106Z,8.83
2019-03-19T08:06:50.533Z,6.80
2019-03-19T08:09:19.969Z,7.28
2019-03-19T08:11:48.794Z,8.75
2019-03-19T08:14:18.349Z,8.93
2019-03-19T08:16:47.835Z,9.18
2019-03-19T08:19:17.239Z,9.15
2019-03-19T08:21:46.726Z,9.25
2019-03-19T08:24:16.137Z,8.63
2019-03-19T08:26:45.549Z,9.40
2019-03-19T08:29:15.018Z,10.10
2019-03-19T08:31:44.462Z,9.85
2019-03-19T08:34:14.156Z,9.05
2019-03-19T08:36:43.612Z,7.92
2019-03-19T08:39:13.140Z,8.23
2019-03-19T08:41:42.556Z,8.40
2019-03-19T08:44:12.024Z,7.90
2019-03-19T08:46:41.450Z,5.70
2019-03-19T08:49:11.100Z,4.55
2019-03-19T08:51:40.531Z,5.12
2019-03-19T08:54:09.961Z,4.80
2019-03-19T08:56:39.435Z,4.10
2019-03-19T08:59:08.914Z,4.15
2019-03-19T09:01:38.398Z,3.75
2019-03-19T09:04:07.798Z,3.20
2019-03-19T09:06:38.438Z,3.60
2019-03-19T09:09:09.657Z,4.08
2019-03-19T09:11:39.092Z,4.40
2019-03-19T09:14:08.518Z,5.40
2019-03-19T09:16:37.922Z,5.63
2019-03-19T09:19:07.378Z,6.33
2019-03-19T09:21:36.828Z,5.97
2019-03-19T09:24:06.290Z,6.05
2019-03-19T09:26:35.736Z,6.03
2019-03-19T09:29:05.282Z,5.90
2019-03-19T09:31:34.822Z,5.30
2019-03-19T09:34:04.400Z,5.53
2019-03-19T09:36:33.849Z,4.92
2019-03-19T09:39:04.857Z,5.00
2019-03-19T09:41:34.264Z,4.83
2019-03-19T09:44:03.711Z,4.50
2019-03-19T09:46:33.137Z,3.80
2019-03-19T09:49:02.607Z,4.42
2019-03-19T09:51:32.018Z,4.60
2019-03-19T09:54:01.507Z,5.50
2019-03-19T09:56:30.957Z,5.78
2019-03-19T09:59:00.447Z,6.28
2019-03-19T10:01:29.880Z,2.80
2019-03-19T10:03:59.350Z,4.35
2019-03-19T10:06:28.766Z,5.72
2019-03-19T10:08:58.271Z,5.13
2019-03-19T10:11:27.727Z,5.28
2019-03-19T10:13:57.158Z,5.15
2019-03-19T10:16:26.594Z,6.00
2019-03-19T10:18:56.029Z,6.17
2019-03-19T10:21:24.960Z,5.40
2019-03-19T10:23:53.768Z,4.05
2019-03-19T10:26:22.664Z,4.53
2019-03-19T10:28:51.483Z,4.97
2019-03-19T10:31:21.267Z,3.60
2019-03-19T10:33:50.159Z,4.40
2019-03-19T10:36:19.050Z,3.92
2019-03-19T10:38:47.850Z,3.00
2019-03-19T10:41:16.777Z,4.67
2019-03-19T10:43:45.637Z,4.35
2019-03-19T10:46:14.977Z,4.17
2019-03-19T10:48:44.645Z,3.20
2019-03-19T10:51:14.111Z,3.77
2019-03-19T10:53:42.959Z,4.80
2019-03-19T10:56:12.417Z,4.45
2019-03-19T10:58:41.844Z,4.12
2019-03-19T11:01:11.315Z,5.70
2019-03-19T11:03:40.807Z,5.42
2019-03-19T11:06:10.257Z,5.53
2019-03-19T11:08:39.688Z,5.67
2019-03-19T11:11:09.143Z,5.90
2019-03-19T11:13:38.583Z,5.70
2019-03-19T11:16:08.029Z,6.83
2019-03-19T11:18:37.514Z,5.08
2019-03-19T11:21:06.383Z,5.40
2019-03-19T11:23:35.799Z,5.30
2019-03-19T11:26:05.387Z,4.83
2019-03-19T11:28:34.822Z,5.95
2019-03-19T11:31:04.279Z,5.28
2019-03-19T11:33:33.713Z,5.97
2019-03-19T11:36:03.154Z,5.40
2019-03-19T11:38:32.727Z,5.33
2019-03-19T11:41:02.494Z,5.67
2019-03-19T11:43:31.983Z,6.10
2019-03-19T11:46:00.841Z,4.40
2019-03-19T11:48:29.687Z,4.55
2019-03-19T11:50:59.533Z,5.25
2019-03-19T11:53:29.064Z,5.70
2019-03-19T11:55:58.467Z,6.67
2019-03-19T11:58:27.890Z,6.72
2019-03-19T12:00:59.868Z,6.25
2019-03-19T12:03:29.320Z,6.55
2019-03-19T12:05:58.769Z,6.37
2019-03-19T12:08:28.203Z,6.90
2019-03-19T12:10:58.039Z,6.28
2019-03-19T12:13:27.466Z,6.70
2019-03-19T12:15:56.930Z,6.20
2019-03-19T12:18:26.305Z,6.17
2019-03-19T12:20:55.765Z,6.03
2019-03-19T12:23:26.368Z,5.65
2019-03-19T12:25:55.832Z,6.28
2019-03-19T12:28:25.275Z,6.22
2019-03-19T12:30:55.016Z,5.75
2019-03-19T12:33:24.618Z,6.97
2019-03-19T12:35:54.134Z,5.50
2019-03-19T12:38:24.051Z,7.50
2019-03-19T12:40:53.502Z,6.97
2019-03-19T12:43:22.927Z,6.83
2019-03-19T12:45:52.394Z,6.72
2019-03-19T12:48:21.828Z,6.97
2019-03-19T12:50:51.336Z,7.78
2019-03-19T12:53:20.814Z,7.87
2019-03-19T12:55:50.312Z,7.97
2019-03-19T12:58:19.159Z,7.35
2019-03-19T13:00:48.618Z,8.25
2019-03-19T13:03:18.060Z,5.60
2019-03-19T13:05:47.523Z,8.30
2019-03-19T13:08:17.000Z,7.35
2019-03-19T13:10:46.452Z,9.25
2019-03-19T13:13:15.896Z,7.45
2019-03-19T13:15:45.367Z,8.18
2019-03-19T13:18:14.864Z,8.25
2019-03-19T13:20:43.738Z,7.70
2019-03-19T13:23:12.902Z,7.17
2019-03-19T13:25:41.814Z,6.92
2019-03-19T13:28:10.723Z,6.10
2019-03-19T13:30:44.962Z,5.80
2019-03-19T13:33:11.300Z,6.53
2019-03-19T13:35:40.742Z,6.53
2019-03-19T13:38:12.535Z,6.53
2019-03-19T13:40:41.319Z,6.75
2019-03-19T13:43:10.747Z,6.97
2019-03-19T13:45:40.162Z,6.70
2019-03-19T13:48:09.596Z,7.17
2019-03-19T13:50:39.034Z,6.83
2019-03-19T13:53:08.531Z,8.53
2019-03-19T13:55:37.969Z,9.25
2019-03-19T13:58:07.406Z,7.92
2019-03-19T14:00:38.388Z,7.80
2019-03-19T14:03:07.853Z,6.40
2019-03-19T14:05:37.278Z,7.17
2019-03-19T14:08:06.739Z,6.20
2019-03-19T14:10:36.259Z,6.80
2019-03-19T14:13:05.921Z,7.70
2019-03-19T14:15:35.360Z,7.55
2019-03-19T14:18:04.832Z,7.00
2019-03-19T14:20:34.281Z,6.90
2019-03-19T14:23:03.715Z,8.60
2019-03-19T14:25:33.211Z,10.25
2019-03-19T14:28:02.669Z,4.35
2019-03-19T14:30:32.102Z,95.95
2019-03-19T14:33:01.656Z,6.37
2019-03-19T14:35:37.255Z,112.83
2019-03-19T14:38:03.115Z,128.10
2019-03-19T14:40:32.520Z,13.48
2019-03-19T14:43:02.044Z,10.20
2019-03-19T14:45:31.412Z,18.50
2019-03-19T14:48:00.949Z,42.03
2019-03-19T14:50:30.451Z,12.47
2019-03-19T14:52:59.871Z,12.58
2019-03-19T14:55:29.401Z,12.68
2019-03-19T14:57:59.136Z,8.58
2019-03-19T15:00:28.617Z,8.23
2019-03-19T15:02:58.027Z,8.25
2019-03-19T15:05:27.587Z,7.95
2019-03-19T15:07:57.073Z,8.50
2019-03-19T15:10:26.499Z,8.23
2019-03-19T15:12:55.954Z,7.45
2019-03-19T15:15:25.424Z,7.78
2019-03-19T15:17:54.974Z,7.37
2019-03-19T15:20:24.675Z,16.80
2019-03-19T15:22:54.103Z,8.88
2019-03-19T15:25:23.602Z,7.17
2019-03-19T15:27:53.115Z,7.10
2019-03-19T15:30:22.545Z,7.63
2019-03-19T15:32:51.423Z,6.78
2019-03-19T15:35:20.848Z,8.60
2019-03-19T15:37:50.320Z,7.80
2019-03-19T15:40:20.161Z,7.90
2019-03-19T15:42:49.630Z,8.83
2019-03-19T15:45:19.059Z,8.83
2019-03-19T15:47:48.566Z,8.95
2019-03-19T15:50:18.118Z,41.63
2019-03-19T15:52:47.520Z,15.25
2019-03-19T15:55:17.020Z,11.55
2019-03-19T15:57:46.467Z,10.40
2019-03-19T16:00:16.793Z,9.73
2019-03-19T16:02:46.520Z,12.70
2019-03-19T16:05:15.980Z,11.65
2019-03-19T16:07:45.429Z,11.97
2019-03-19T16:10:15.017Z,13.03
2019-03-19T16:12:44.407Z,13.88
2019-03-19T16:15:14.494Z,22.80
2019-03-19T16:17:43.974Z,21.65
2019-03-19T16:20:14.525Z,38.98
2019-03-19T16:22:45.186Z,20.50
2019-03-19T16:25:14.798Z,13.13
2019-03-19T16:27:44.249Z,38.98
2019-03-19T16:30:14.641Z,16.48
2019-03-19T16:32:44.145Z,68.85
2019-03-19T16:35:13.859Z,24.57
2019-03-19T16:37:43.444Z,15.28
2019-03-19T16:40:15.824Z,13.93
2019-03-19T16:42:45.351Z,11.53
2019-03-19T16:45:17.549Z,23.97
2019-03-19T16:47:46.167Z,10.93
2019-03-19T16:50:16.118Z,24.85
2019-03-19T16:52:46.090Z,10.43
2019-03-19T16:55:15.893Z,10.48
2019-03-19T16:57:45.469Z,10.15
2019-03-19T17:00:16.787Z,10.10
2019-03-19T17:02:46.266Z,10.08
2019-03-19T17:05:16.513Z,10.90
2019-03-19T17:07:46.050Z,11.15
2019-03-19T17:10:16.323Z,12.28
2019-03-19T17:12:45.916Z,12.37
2019-03-19T17:15:15.971Z,12.25
2019-03-19T17:17:45.726Z,12.73
2019-03-19T17:20:15.568Z,13.62
2019-03-19T17:22:44.975Z,14.80
2019-03-19T17:25:15.587Z,14.05
2019-03-19T17:27:45.018Z,14.53
2019-03-19T17:30:19.861Z,14.33
2019-03-19T17:32:49.262Z,14.25
2019-03-19T17:35:21.672Z,15.08
2019-03-19T17:37:51.134Z,16.15
2019-03-19T17:40:20.838Z,16.53
2019-03-19T17:42:50.384Z,17.45
2019-03-19T17:45:19.858Z,17.98
2019-03-19T17:47:49.285Z,18.50
2019-03-19T17:50:19.646Z,17.17
2019-03-19T17:52:49.828Z,18.05
2019-03-19T17:55:19.411Z,17.15
2019-03-19T17:57:48.896Z,18.75
2019-03-19T18:00:23.178Z,19.00
2019-03-19T18:02:52.670Z,21.90
2019-03-19T18:05:22.217Z,21.15
2019-03-19T18:07:51.659Z,21.73
2019-03-19T18:10:21.185Z,23.45
2019-03-19T18:12:50.622Z,23.80
2019-03-19T18:15:20.071Z,24.57
2019-03-19T18:17:49.481Z,22.40
2019-03-19T18:20:18.976Z,31.07
2019-03-19T18:22:49.381Z,27.90
2019-03-19T18:25:18.823Z,23.90
2019-03-19T18:27:48.350Z,24.02
2019-03-19T18:30:17.819Z,25.05
2019-03-19T18:32:47.239Z,23.75
2019-03-19T18:35:16.677Z,24.47
2019-03-19T18:37:46.107Z,28.27
2019-03-19T18:40:15.575Z,49.42
2019-03-19T18:42:45.101Z,27.82
2019-03-19T18:45:14.595Z,26.23
2019-03-19T18:47:44.107Z,24.77
2019-03-19T18:50:14.150Z,23.42
2019-03-19T18:52:43.617Z,23.73
2019-03-19T18:55:13.317Z,24.30
2019-03-19T18:57:42.879Z,28.30
2019-03-19T19:00:15.841Z,20.63
2019-03-19T19:02:50.053Z,21.40
2019-03-19T19:05:16.517Z,20.45
2019-03-19T19:07:45.995Z,19.45
2019-03-19T19:10:15.488Z,19.25
2019-03-19T19:12:44.945Z,19.80
2019-03-19T19:15:15.001Z,19.63
2019-03-19T19:17:44.489Z,20.23
2019-03-19T19:20:14.138Z,19.92
2019-03-19T19:22:43.601Z,20.72
2019-03-19T19:25:14.008Z,31.40
2019-03-19T19:27:43.505Z,21.10
2019-03-19T19:30:15.239Z,21.07
2019-03-19T19:32:44.706Z,22.22
2019-03-19T19:35:14.243Z,20.70
2019-03-19T19:37:43.670Z,22.87
2019-03-19T19:40:14.088Z,26.60
2019-03-19T19:42:43.649Z,25.10
2019-03-19T19:45:13.159Z,23.70
2019-03-19T19:47:42.786Z,24.02
2019-03-19T19:50:13.526Z,24.67
2019-03-19T19:52:43.804Z,23.22
2019-03-19T19:55:21.400Z,27.62
2019-03-19T19:57:51.167Z,27.32
2019-03-19T20:00:20.714Z,28.02
2019-03-19T20:02:50.230Z,26.30
2019-03-19T20:05:19.670Z,24.20
2019-03-19T20:07:49.147Z,25.85
2019-03-19T20:10:18.814Z,23.52
2019-03-19T20:12:48.256Z,22.52
2019-03-19T20:15:17.997Z,22.70
2019-03-19T20:17:47.769Z,21.45
2019-03-19T20:20:18.006Z,22.80
2019-03-19T20:22:47.455Z,22.90
2019-03-19T20:25:16.952Z,22.75
2019-03-19T20:27:46.387Z,22.02
2019-03-19T20:30:17.561Z,23.18
2019-03-19T20:32:47.153Z,24.60
2019-03-19T20:35:16.652Z,23.03
2019-03-19T20:37:46.123Z,25.15
2019-03-19T20:40:15.629Z,23.80
2019-03-19T20:42:45.142Z,25.17
2019-03-19T20:45:14.645Z,24.63
2019-03-19T20:47:44.118Z,25.25
2019-03-19T20:50:22.159Z,25.17
2019-03-19T20:52:51.672Z,25.27
2019-03-19T20:55:21.196Z,25.88
2019-03-19T20:57:50.694Z,26.75
2019-03-19T21:00:20.131Z,24.72
2019-03-19T21:02:49.605Z,25.30
2019-03-19T21:05:19.051Z,25.12
2019-03-19T21:07:48.618Z,24.27
2019-03-19T21:10:19.021Z,25.97
2019-03-19T21:12:48.525Z,24.67
2019-03-19T21:15:19.651Z,23.70
2019-03-19T21:17:49.328Z,25.12
2019-03-19T21:20:18.770Z,24.80
2019-03-19T21:22:48.231Z,24.35
2019-03-19T21:25:17.881Z,24.30
2019-03-19T21:27:47.308Z,24.07
2019-03-19T21:30:18.550Z,25.30
2019-03-19T21:32:47.986Z,24.30
2019-03-19T21:35:19.800Z,24.02
2019-03-19T21:37:49.394Z,24.75
2019-03-19T21:40:19.002Z,24.47
2019-03-19T21:42:48.479Z,23.95
2019-03-19T21:45:17.382Z,24.10
2019-03-19T21:47:46.829Z,27.00
2019-03-19T21:50:16.321Z,25.02
2019-03-19T21:52:45.769Z,24.85
2019-03-19T21:55:15.396Z,26.73
2019-03-19T21:57:44.829Z,25.88
2019-03-19T22:00:15.652Z,27.30
2019-03-19T22:02:45.139Z,26.93
2019-03-19T22:05:14.574Z,27.55
2019-03-19T22:07:43.995Z,30.82
2019-03-19T22:10:14.273Z,32.88
2019-03-19T22:12:44.193Z,33.03
2019-03-19T22:15:15.587Z,33.42
2019-03-19T22:17:45.148Z,35.58
2019-03-19T22:20:15.290Z,33.25
2019-03-19T22:22:44.755Z,36.90
2019-03-19T22:25:14.234Z,31.25
2019-03-19T22:27:43.651Z,30.23
2019-03-19T22:30:14.995Z,32.33
2019-03-19T22:32:44.577Z,32.28
2019-03-19T22:35:14.908Z,31.62
2019-03-19T22:37:44.351Z,29.15
2019-03-19T22:40:14.828Z,30.02
2019-03-19T22:42:44.287Z,32.55
2019-03-19T22:45:14.621Z,41.48
2019-03-19T22:47:44.132Z,30.23
2019-03-19T22:50:14.313Z,29.37
2019-03-19T22:52:43.790Z,31.00
2019-03-19T22:55:13.480Z,29.87
2019-03-19T22:57:42.910Z,27.70
2019-03-19T23:00:37.274Z,28.02
2019-03-19T23:03:07.357Z,27.22
2019-03-19T23:05:37.404Z,25.15
2019-03-19T23:08:06.900Z,25.63
2019-03-19T23:10:36.897Z,24.47
2019-03-19T23:13:06.429Z,22.55
2019-03-19T23:15:36.004Z,21.82
2019-03-19T23:18:05.574Z,20.90
2019-03-19T23:20:34.992Z,21.62
2019-03-19T23:23:04.476Z,21.85
2019-03-19T23:25:33.958Z,21.70
2019-03-19T23:28:03.438Z,21.07
2019-03-19T23:30:32.880Z,20.08
2019-03-19T23:33:02.368Z,20.17
2019-03-19T23:35:31.808Z,20.35
2019-03-19T23:38:01.262Z,21.02
2019-03-19T23:40:30.709Z,21.85
2019-03-19T23:43:00.868Z,22.05
2019-03-19T23:45:31.564Z,20.05
2019-03-19T23:48:00.994Z,20.57
2019-03-19T23:50:30.420Z,20.40
2019-03-19T23:52:59.937Z,20.97
2019-03-19T23:55:29.368Z,20.97
2019-03-19T23:57:58.812Z,19.57
